KCQC

Clines Corners Airport

Clines Corner, New Mexico, USA
METAR KCQC 212253Z AUTO 28008KT 10SM FEW100 29/04 A3023 RMK AO2 PK WND 29027/2154 SLP127 T02940044
Observed Flight Rules
Jun-21 @ 22:53 UTC (an hour ago) Visual Flight Rules
Wind Visibility Clouds
280° at 8 knots 10 miles
  • Few at 10,000' AGL
Temperatures Readings
Current 29°C / 84°F
Dewpoint 4°C / 39°F
Humidity 20%
Altimeter 30.23" Hg
Pressure 1012.7 hPa
Elevation 2160
METAR KCQC 212253Z AUTO 28008KT 10SM FEW100 29/04 A3023 RMK AO2 PK WND 29027/2154 SLP127 T02940044
Observed Flight Rules
Jun-21 @ 22:53 UTC
(an hour ago)
VFR
Wind Visibility
280° at 8 knots 10 miles
Clouds
  • Few at 10,000' AGL
Temperature Dewpoint
29°C / 84°F 4°C / 39°F
Humidity Altimeter Pressure
20% 30.23" Hg 1012.7 hPa